Terminal Aerodrome Forecast
Issued by NWS

Home | Current Version | Previous Version | Text Only | Print | Product List | Glossary On
Versions: 1 2 3 4 5 6 7 8 9 10 11 12 13 14 15
000
FTUS46 KEKA 180544
TAFUKI
TAF
KUKI 180544Z 1806/1906 15009KT P6SM -SHRA BKN025 OVC050
     FM180900 16005KT 6SM -RA SCT015 OVC025
     FM182000 15011KT P6SM VCSH SCT025 OVC040=

USA.gov is the U.S. government's official web portal to all federal, state and local government web resources and services.